sensor_id;sensor_type;location;lat;lon;timestamp;pressure;altitude;pressure_sealevel;temperature;humidity
21203;BME280;10759;51.982;9.232;2023-01-10T00:01:50;99675.34;;;6.53;100.00
21203;BME280;10759;51.982;9.232;2023-01-10T00:04:18;99685.06;;;6.54;100.00
21203;BME280;10759;51.982;9.232;2023-01-10T00:06:46;99603.06;;;6.10;100.00
21203;BME280;10759;51.982;9.232;2023-01-10T00:09:14;99687.34;;;6.64;100.00
21203;BME280;10759;51.982;9.232;2023-01-10T00:11:42;99698.09;;;6.61;100.00
21203;BME280;10759;51.982;9.232;2023-01-10T00:14:30;99704.63;;;6.53;100.00
21203;BME280;10759;51.982;9.232;2023-01-10T00:17:00;99702.72;;;6.56;100.00
21203;BME280;10759;51.982;9.232;2023-01-10T00:19:29;99717.56;;;6.63;100.00
21203;BME280;10759;51.982;9.232;2023-01-10T00:21:57;99723.03;;;6.59;100.00
21203;BME280;10759;51.982;9.232;2023-01-10T00:24:28;99720.78;;;6.75;100.00
21203;BME280;10759;51.982;9.232;2023-01-10T00:26:56;99703.75;;;6.52;100.00
21203;BME280;10759;51.982;9.232;2023-01-10T00:29:27;99731.81;;;6.62;100.00
21203;BME280;10759;51.982;9.232;2023-01-10T00:31:59;99689.88;;;6.42;100.00
21203;BME280;10759;51.982;9.232;2023-01-10T00:34:26;99614.38;;;5.89;100.00
21203;BME280;10759;51.982;9.232;2023-01-10T00:36:55;99749.19;;;6.46;100.00
21203;BME280;10759;51.982;9.232;2023-01-10T00:39:23;99684.75;;;6.07;100.00
21203;BME280;10759;51.982;9.232;2023-01-10T00:41:53;99751.66;;;6.52;100.00
21203;BME280;10759;51.982;9.232;2023-01-10T00:44:38;99680.69;;;5.95;100.00
21203;BME280;10759;51.982;9.232;2023-01-10T00:47:07;99718.72;;;6.27;100.00
21203;BME280;10759;51.982;9.232;2023-01-10T00:49:35;99751.84;;;6.46;100.00
21203;BME280;10759;51.982;9.232;2023-01-10T00:52:03;99747.75;;;6.34;100.00
21203;BME280;10759;51.982;9.232;2023-01-10T00:54:32;99780.94;;;6.52;100.00
21203;BME280;10759;51.982;9.232;2023-01-10T00:57:01;99787.91;;;6.56;100.00
21203;BME280;10759;51.982;9.232;2023-01-10T00:59:29;99798.38;;;6.62;100.00
21203;BME280;10759;51.982;9.232;2023-01-10T01:01:57;99816.56;;;6.48;100.00
21203;BME280;10759;51.982;9.232;2023-01-10T01:04:26;99763.13;;;6.24;100.00
21203;BME280;10759;51.982;9.232;2023-01-10T01:07:00;99817.19;;;6.56;100.00
21203;BME280;10759;51.982;9.232;2023-01-10T01:09:29;99780.41;;;6.41;100.00
21203;BME280;10759;51.982;9.232;2023-01-10T01:11:56;99831.53;;;6.52;100.00
21203;BME280;10759;51.982;9.232;2023-01-10T01:14:25;99814.84;;;6.45;100.00
21203;BME280;10759;51.982;9.232;2023-01-10T01:16:53;99842.19;;;6.52;100.00
21203;BME280;10759;51.982;9.232;2023-01-10T01:19:21;99848.25;;;6.56;100.00
21203;BME280;10759;51.982;9.232;2023-01-10T01:21:51;99858.56;;;6.68;100.00
21203;BME280;10759;51.982;9.232;2023-01-10T01:24:19;99864.94;;;6.62;100.00
21203;BME280;10759;51.982;9.232;2023-01-10T01:26:48;99832.47;;;6.50;100.00
21203;BME280;10759;51.982;9.232;2023-01-10T01:29:16;99865.97;;;6.57;100.00
21203;BME280;10759;51.982;9.232;2023-01-10T01:31:45;99868.97;;;6.46;100.00
21203;BME280;10759;51.982;9.232;2023-01-10T01:34:13;99767.13;;;5.78;100.00
21203;BME280;10759;51.982;9.232;2023-01-10T01:36:41;99894.63;;;6.49;100.00
21203;BME280;10759;51.982;9.232;2023-01-10T01:39:10;99902.56;;;6.50;100.00
21203;BME280;10759;51.982;9.232;2023-01-10T01:41:38;99810.28;;;5.88;100.00
21203;BME280;10759;51.982;9.232;2023-01-10T01:44:30;99780.13;;;5.56;100.00
21203;BME280;10759;51.982;9.232;2023-01-10T01:47:01;99903.94;;;6.32;100.00
21203;BME280;10759;51.982;9.232;2023-01-10T01:49:35;99887.44;;;6.19;100.00
21203;BME280;10759;51.982;9.232;2023-01-10T01:52:08;99934.16;;;6.31;100.00
21203;BME280;10759;51.982;9.232;2023-01-10T01:54:40;99940.94;;;6.43;100.00
21203;BME280;10759;51.982;9.232;2023-01-10T01:57:09;99943.34;;;6.52;100.00
21203;BME280;10759;51.982;9.232;2023-01-10T01:59:41;99943.84;;;6.34;100.00
21203;BME280;10759;51.982;9.232;2023-01-10T02:02:13;99937.84;;;6.26;100.00
21203;BME280;10759;51.982;9.232;2023-01-10T02:04:47;99879.44;;;5.88;100.00
21203;BME280;10759;51.982;9.232;2023-01-10T02:07:18;99856.75;;;5.73;100.00
21203;BME280;10759;51.982;9.232;2023-01-10T02:09:51;99864.38;;;5.86;100.00
21203;BME280;10759;51.982;9.232;2023-01-10T02:12:21;99944.13;;;6.23;100.00
21203;BME280;10759;51.982;9.232;2023-01-10T02:14:51;99968.84;;;6.27;100.00
21203;BME280;10759;51.982;9.232;2023-01-10T02:17:20;99963.03;;;6.12;100.00
21203;BME280;10759;51.982;9.232;2023-01-10T02:19:51;99986.00;;;6.16;100.00
21203;BME280;10759;51.982;9.232;2023-01-10T02:31:36;100002.81;;;6.17;100.00
21203;BME280;10759;51.982;9.232;2023-01-10T02:34:12;99924.41;;;5.62;100.00
21203;BME280;10759;51.982;9.232;2023-01-10T02:36:46;100006.75;;;6.02;100.00
21203;BME280;10759;51.982;9.232;2023-01-10T02:39:22;99969.06;;;5.83;100.00
21203;BME280;10759;51.982;9.232;2023-01-10T02:41:55;100001.94;;;6.18;100.00
21203;BME280;10759;51.982;9.232;2023-01-10T02:44:28;99876.63;;;5.24;100.00
21203;BME280;10759;51.982;9.232;2023-01-10T02:47:02;100013.75;;;6.06;100.00
21203;BME280;10759;51.982;9.232;2023-01-10T02:49:41;99991.41;;;6.13;100.00
21203;BME280;10759;51.982;9.232;2023-01-10T02:52:10;99999.53;;;6.07;100.00
21203;BME280;10759;51.982;9.232;2023-01-10T02:54:40;99927.00;;;5.65;100.00
21203;BME280;10759;51.982;9.232;2023-01-10T02:57:21;100020.66;;;6.13;100.00
21203;BME280;10759;51.982;9.232;2023-01-10T03:00:18;100020.78;;;6.09;100.00
21203;BME280;10759;51.982;9.232;2023-01-10T03:02:57;100028.28;;;6.27;100.00
21203;BME280;10759;51.982;9.232;2023-01-10T03:05:44;100028.22;;;6.30;100.00
21203;BME280;10759;51.982;9.232;2023-01-10T03:08:23;100042.09;;;6.41;100.00
21203;BME280;10759;51.982;9.232;2023-01-10T03:10:56;100051.13;;;6.36;100.00
21203;BME280;10759;51.982;9.232;2023-01-10T03:13:28;100003.13;;;6.05;100.00
21203;BME280;10759;51.982;9.232;2023-01-10T03:16:00;100032.72;;;6.27;100.00
21203;BME280;10759;51.982;9.232;2023-01-10T03:18:32;100034.31;;;6.34;100.00
21203;BME280;10759;51.982;9.232;2023-01-10T03:21:04;100056.38;;;6.39;100.00
21203;BME280;10759;51.982;9.232;2023-01-10T03:23:34;100068.00;;;6.35;100.00
21203;BME280;10759;51.982;9.232;2023-01-10T03:26:04;99922.09;;;5.46;100.00
21203;BME280;10759;51.982;9.232;2023-01-10T03:28:40;99977.84;;;5.87;100.00
21203;BME280;10759;51.982;9.232;2023-01-10T03:31:15;100062.66;;;6.35;100.00
21203;BME280;10759;51.982;9.232;2023-01-10T03:33:46;100075.50;;;6.53;100.00
21203;BME280;10759;51.982;9.232;2023-01-10T03:36:21;100085.41;;;6.48;100.00
21203;BME280;10759;51.982;9.232;2023-01-10T03:38:54;100003.41;;;5.92;100.00
21203;BME280;10759;51.982;9.232;2023-01-10T03:41:25;100100.72;;;6.40;100.00
21203;BME280;10759;51.982;9.232;2023-01-10T03:44:05;100084.97;;;6.31;100.00
21203;BME280;10759;51.982;9.232;2023-01-10T03:46:56;100050.91;;;6.09;100.00
21203;BME280;10759;51.982;9.232;2023-01-10T03:49:26;100117.34;;;6.48;100.00
21203;BME280;10759;51.982;9.232;2023-01-10T03:51:57;100110.22;;;6.50;100.00
21203;BME280;10759;51.982;9.232;2023-01-10T03:54:25;100070.91;;;6.26;100.00
21203;BME280;10759;51.982;9.232;2023-01-10T03:56:53;100127.28;;;6.41;100.00
21203;BME280;10759;51.982;9.232;2023-01-10T03:59:24;100112.16;;;6.42;100.00
21203;BME280;10759;51.982;9.232;2023-01-10T04:01:54;100114.03;;;6.40;100.00
21203;BME280;10759;51.982;9.232;2023-01-10T04:04:22;100123.00;;;6.34;100.00
21203;BME280;10759;51.982;9.232;2023-01-10T04:06:50;100133.25;;;6.51;100.00
21203;BME280;10759;51.982;9.232;2023-01-10T04:09:20;100132.69;;;6.37;100.00
21203;BME280;10759;51.982;9.232;2023-01-10T04:11:48;100142.28;;;6.44;100.00
21203;BME280;10759;51.982;9.232;2023-01-10T04:14:16;100136.19;;;6.40;100.00
21203;BME280;10759;51.982;9.232;2023-01-10T04:16:44;100143.53;;;6.29;100.00
21203;BME280;10759;51.982;9.232;2023-01-10T04:19:12;100155.81;;;6.35;100.00
21203;BME280;10759;51.982;9.232;2023-01-10T04:21:40;100111.66;;;5.89;100.00
21203;BME280;10759;51.982;9.232;2023-01-10T04:24:08;100160.66;;;6.19;100.00
21203;BME280;10759;51.982;9.232;2023-01-10T04:26:37;100168.81;;;6.11;100.00
21203;BME280;10759;51.982;9.232;2023-01-10T04:29:05;100175.81;;;6.15;100.00
21203;BME280;10759;51.982;9.232;2023-01-10T04:31:34;99871.44;;;4.39;100.00
21203;BME280;10759;51.982;9.232;2023-01-10T04:34:02;100169.50;;;6.19;100.00
21203;BME280;10759;51.982;9.232;2023-01-10T04:36:30;100157.41;;;6.05;100.00
21203;BME280;10759;51.982;9.232;2023-01-10T04:38:58;100092.16;;;5.49;100.00
21203;BME280;10759;51.982;9.232;2023-01-10T04:41:26;100134.19;;;5.71;100.00
21203;BME280;10759;51.982;9.232;2023-01-10T04:43:55;100131.19;;;5.46;100.00
21203;BME280;10759;51.982;9.232;2023-01-10T04:46:23;100010.22;;;4.87;100.00
21203;BME280;10759;51.982;9.232;2023-01-10T04:48:51;100196.66;;;5.95;100.00
21203;BME280;10759;51.982;9.232;2023-01-10T04:51:19;100191.06;;;6.07;100.00
21203;BME280;10759;51.982;9.232;2023-01-10T04:53:47;100187.72;;;5.99;100.00
21203;BME280;10759;51.982;9.232;2023-01-10T04:56:16;100207.78;;;6.14;100.00
21203;BME280;10759;51.982;9.232;2023-01-10T04:58:45;100206.16;;;6.07;100.00
21203;BME280;10759;51.982;9.232;2023-01-10T05:01:17;100208.63;;;6.14;100.00
21203;BME280;10759;51.982;9.232;2023-01-10T05:03:47;100116.66;;;5.64;100.00
21203;BME280;10759;51.982;9.232;2023-01-10T05:06:15;100179.75;;;5.97;100.00
21203;BME280;10759;51.982;9.232;2023-01-10T05:08:43;100213.47;;;5.97;100.00
21203;BME280;10759;51.982;9.232;2023-01-10T05:11:12;100136.56;;;5.44;100.00
21203;BME280;10759;51.982;9.232;2023-01-10T05:13:41;100220.19;;;5.71;100.00
21203;BME280;10759;51.982;9.232;2023-01-10T05:16:09;100204.94;;;5.79;100.00
21203;BME280;10759;51.982;9.232;2023-01-10T05:18:38;100224.56;;;5.72;100.00
21203;BME280;10759;51.982;9.232;2023-01-10T05:21:08;100216.78;;;5.63;100.00
21203;BME280;10759;51.982;9.232;2023-01-10T05:23:36;100233.25;;;5.82;100.00
21203;BME280;10759;51.982;9.232;2023-01-10T05:26:05;100246.69;;;5.76;100.00
21203;BME280;10759;51.982;9.232;2023-01-10T05:28:34;100249.09;;;5.87;100.00
21203;BME280;10759;51.982;9.232;2023-01-10T05:31:02;100215.16;;;5.56;100.00
21203;BME280;10759;51.982;9.232;2023-01-10T05:33:32;100049.28;;;4.81;100.00
21203;BME280;10759;51.982;9.232;2023-01-10T05:36:01;100258.81;;;5.88;100.00
21203;BME280;10759;51.982;9.232;2023-01-10T05:38:30;100256.94;;;5.93;100.00
21203;BME280;10759;51.982;9.232;2023-01-10T05:40:59;100262.94;;;6.06;100.00
21203;BME280;10759;51.982;9.232;2023-01-10T05:43:27;100269.44;;;5.91;100.00
21203;BME280;10759;51.982;9.232;2023-01-10T05:45:55;100268.13;;;6.12;100.00
21203;BME280;10759;51.982;9.232;2023-01-10T05:48:23;100159.97;;;5.25;100.00
21203;BME280;10759;51.982;9.232;2023-01-10T05:50:51;100263.69;;;5.66;100.00
21203;BME280;10759;51.982;9.232;2023-01-10T05:53:21;100256.50;;;5.71;100.00
21203;BME280;10759;51.982;9.232;2023-01-10T05:55:53;100288.16;;;5.83;100.00
21203;BME280;10759;51.982;9.232;2023-01-10T05:58:22;100241.00;;;5.49;100.00
21203;BME280;10759;51.982;9.232;2023-01-10T06:00:50;100305.84;;;5.86;100.00
21203;BME280;10759;51.982;9.232;2023-01-10T06:03:18;100198.19;;;5.18;100.00
21203;BME280;10759;51.982;9.232;2023-01-10T06:05:46;100304.19;;;5.81;100.00
21203;BME280;10759;51.982;9.232;2023-01-10T06:08:14;100317.88;;;6.07;100.00
21203;BME280;10759;51.982;9.232;2023-01-10T06:10:44;100191.13;;;5.17;100.00
21203;BME280;10759;51.982;9.232;2023-01-10T06:13:12;100326.16;;;5.90;100.00
21203;BME280;10759;51.982;9.232;2023-01-10T06:15:40;100220.91;;;5.34;100.00
21203;BME280;10759;51.982;9.232;2023-01-10T06:18:08;100320.78;;;5.93;100.00
21203;BME280;10759;51.982;9.232;2023-01-10T06:20:38;100304.25;;;5.78;100.00
21203;BME280;10759;51.982;9.232;2023-01-10T06:23:06;100326.31;;;5.84;100.00
21203;BME280;10759;51.982;9.232;2023-01-10T06:25:35;100159.75;;;4.89;100.00
21203;BME280;10759;51.982;9.232;2023-01-10T06:28:08;100305.25;;;5.71;100.00
21203;BME280;10759;51.982;9.232;2023-01-10T06:30:36;100342.06;;;5.96;100.00
21203;BME280;10759;51.982;9.232;2023-01-10T06:33:05;100238.72;;;5.29;100.00
21203;BME280;10759;51.982;9.232;2023-01-10T06:35:35;100352.38;;;6.11;100.00
21203;BME280;10759;51.982;9.232;2023-01-10T06:38:03;100361.41;;;6.04;100.00
21203;BME280;10759;51.982;9.232;2023-01-10T06:40:31;100310.69;;;5.65;100.00
21203;BME280;10759;51.982;9.232;2023-01-10T06:42:59;100348.38;;;5.87;100.00
21203;BME280;10759;51.982;9.232;2023-01-10T06:45:28;100366.00;;;5.96;100.00
21203;BME280;10759;51.982;9.232;2023-01-10T06:47:56;100291.72;;;5.37;100.00
21203;BME280;10759;51.982;9.232;2023-01-10T06:50:25;100373.25;;;5.86;100.00
21203;BME280;10759;51.982;9.232;2023-01-10T06:52:55;100385.41;;;6.01;100.00
21203;BME280;10759;51.982;9.232;2023-01-10T06:55:23;100291.22;;;5.63;100.00
21203;BME280;10759;51.982;9.232;2023-01-10T06:57:55;100361.91;;;5.76;100.00
21203;BME280;10759;51.982;9.232;2023-01-10T07:00:24;100411.16;;;5.97;100.00
21203;BME280;10759;51.982;9.232;2023-01-10T07:02:54;100210.41;;;4.77;100.00
21203;BME280;10759;51.982;9.232;2023-01-10T07:05:24;100410.31;;;5.97;100.00
21203;BME280;10759;51.982;9.232;2023-01-10T07:07:52;100411.16;;;5.99;100.00
21203;BME280;10759;51.982;9.232;2023-01-10T07:10:20;100413.94;;;5.90;100.00
21203;BME280;10759;51.982;9.232;2023-01-10T07:12:48;100321.88;;;5.34;100.00
21203;BME280;10759;51.982;9.232;2023-01-10T07:15:16;100271.97;;;5.02;100.00
21203;BME280;10759;51.982;9.232;2023-01-10T07:17:44;100422.00;;;5.85;100.00
21203;BME280;10759;51.982;9.232;2023-01-10T07:20:13;100421.16;;;5.83;100.00
21203;BME280;10759;51.982;9.232;2023-01-10T07:22:41;100201.75;;;4.66;100.00
21203;BME280;10759;51.982;9.232;2023-01-10T07:25:09;100399.00;;;5.82;100.00
21203;BME280;10759;51.982;9.232;2023-01-10T07:27:37;100439.31;;;6.11;100.00
21203;BME280;10759;51.982;9.232;2023-01-10T07:30:09;100382.25;;;5.77;100.00
21203;BME280;10759;51.982;9.232;2023-01-10T07:32:37;100291.88;;;5.28;100.00
21203;BME280;10759;51.982;9.232;2023-01-10T07:35:06;100430.56;;;6.04;100.00
21203;BME280;10759;51.982;9.232;2023-01-10T07:37:35;100426.19;;;6.00;100.00
21203;BME280;10759;51.982;9.232;2023-01-10T07:40:04;100412.91;;;6.00;100.00
21203;BME280;10759;51.982;9.232;2023-01-10T07:42:32;100425.25;;;6.02;100.00
21203;BME280;10759;51.982;9.232;2023-01-10T07:45:00;100418.31;;;5.92;100.00
21203;BME280;10759;51.982;9.232;2023-01-10T07:47:28;100430.34;;;6.16;100.00
21203;BME280;10759;51.982;9.232;2023-01-10T07:49:56;100448.78;;;6.26;100.00
21203;BME280;10759;51.982;9.232;2023-01-10T07:52:24;100451.72;;;6.10;100.00
21203;BME280;10759;51.982;9.232;2023-01-10T07:54:54;100456.16;;;6.10;100.00
21203;BME280;10759;51.982;9.232;2023-01-10T07:57:22;100451.78;;;6.09;100.00
21203;BME280;10759;51.982;9.232;2023-01-10T07:59:50;100462.50;;;6.04;100.00
21203;BME280;10759;51.982;9.232;2023-01-10T08:02:18;100455.47;;;6.00;100.00
21203;BME280;10759;51.982;9.232;2023-01-10T08:04:46;100364.34;;;5.37;100.00
21203;BME280;10759;51.982;9.232;2023-01-10T08:07:14;100470.63;;;5.93;100.00
21203;BME280;10759;51.982;9.232;2023-01-10T08:09:42;100487.03;;;6.20;100.00
21203;BME280;10759;51.982;9.232;2023-01-10T08:12:11;100413.31;;;5.75;100.00
21203;BME280;10759;51.982;9.232;2023-01-10T08:14:39;100486.22;;;6.16;100.00
21203;BME280;10759;51.982;9.232;2023-01-10T08:17:07;100493.56;;;6.00;100.00
21203;BME280;10759;51.982;9.232;2023-01-10T08:19:35;100508.56;;;6.06;100.00
21203;BME280;10759;51.982;9.232;2023-01-10T08:22:03;100517.50;;;6.02;100.00
21203;BME280;10759;51.982;9.232;2023-01-10T08:24:31;100467.41;;;5.74;100.00
21203;BME280;10759;51.982;9.232;2023-01-10T08:26:59;100466.22;;;5.94;100.00
21203;BME280;10759;51.982;9.232;2023-01-10T08:29:28;100478.44;;;6.04;100.00
21203;BME280;10759;51.982;9.232;2023-01-10T08:31:56;100474.72;;;6.14;100.00
21203;BME280;10759;51.982;9.232;2023-01-10T08:34:24;100478.44;;;6.06;100.00
21203;BME280;10759;51.982;9.232;2023-01-10T08:36:53;100470.34;;;6.10;100.00
21203;BME280;10759;51.982;9.232;2023-01-10T08:39:21;100487.28;;;6.06;100.00
21203;BME280;10759;51.982;9.232;2023-01-10T08:41:52;100494.91;;;6.26;100.00
21203;BME280;10759;51.982;9.232;2023-01-10T08:44:20;100490.59;;;6.20;100.00
21203;BME280;10759;51.982;9.232;2023-01-10T08:46:49;100499.00;;;6.44;100.00
21203;BME280;10759;51.982;9.232;2023-01-10T08:49:17;100388.72;;;5.64;100.00
21203;BME280;10759;51.982;9.232;2023-01-10T08:51:45;100495.69;;;6.33;100.00
21203;BME280;10759;51.982;9.232;2023-01-10T08:54:13;100453.38;;;6.17;100.00
21203;BME280;10759;51.982;9.232;2023-01-10T08:56:41;100506.91;;;6.49;100.00
21203;BME280;10759;51.982;9.232;2023-01-10T08:59:09;100430.56;;;6.04;100.00
21203;BME280;10759;51.982;9.232;2023-01-10T09:01:37;100509.50;;;6.52;100.00
21203;BME280;10759;51.982;9.232;2023-01-10T09:04:07;100507.53;;;6.61;100.00
21203;BME280;10759;51.982;9.232;2023-01-10T09:06:35;100504.94;;;6.60;100.00
21203;BME280;10759;51.982;9.232;2023-01-10T09:09:03;100422.34;;;6.16;100.00
21203;BME280;10759;51.982;9.232;2023-01-10T09:11:31;100534.16;;;6.63;100.00
21203;BME280;10759;51.982;9.232;2023-01-10T09:13:59;100537.84;;;6.54;100.00
21203;BME280;10759;51.982;9.232;2023-01-10T09:16:27;100539.69;;;6.52;100.00
21203;BME280;10759;51.982;9.232;2023-01-10T09:18:56;100509.66;;;6.44;100.00
21203;BME280;10759;51.982;9.232;2023-01-10T09:21:26;100523.81;;;6.46;100.00
21203;BME280;10759;51.982;9.232;2023-01-10T09:23:54;100538.53;;;6.67;100.00
21203;BME280;10759;51.982;9.232;2023-01-10T09:26:22;100538.72;;;6.56;100.00
21203;BME280;10759;51.982;9.232;2023-01-10T09:28:50;100539.69;;;6.52;100.00
21203;BME280;10759;51.982;9.232;2023-01-10T09:31:17;100541.19;;;6.65;100.00
21203;BME280;10759;51.982;9.232;2023-01-10T09:33:45;100488.88;;;6.16;100.00
21203;BME280;10759;51.982;9.232;2023-01-10T09:36:15;100553.66;;;6.63;100.00
21203;BME280;10759;51.982;9.232;2023-01-10T09:38:44;100449.25;;;6.01;100.00
21203;BME280;10759;51.982;9.232;2023-01-10T09:41:45;100561.88;;;6.51;100.00
21203;BME280;10759;51.982;9.232;2023-01-10T09:44:18;100536.09;;;6.55;100.00
21203;BME280;10759;51.982;9.232;2023-01-10T09:46:54;100566.09;;;6.63;100.00
21203;BME280;10759;51.982;9.232;2023-01-10T09:49:35;100430.84;;;5.86;100.00
21203;BME280;10759;51.982;9.232;2023-01-10T09:52:12;100556.72;;;6.42;100.00
21203;BME280;10759;51.982;9.232;2023-01-10T09:54:47;100572.53;;;6.50;100.00
21203;BME280;10759;51.982;9.232;2023-01-10T09:57:18;100436.22;;;5.82;100.00
21203;BME280;10759;51.982;9.232;2023-01-10T09:59:47;100458.03;;;6.06;100.00
21203;BME280;10759;51.982;9.232;2023-01-10T10:02:24;100561.66;;;6.63;100.00
21203;BME280;10759;51.982;9.232;2023-01-10T10:05:03;100575.59;;;6.78;100.00
21203;BME280;10759;51.982;9.232;2023-01-10T10:07:34;100491.38;;;6.26;100.00
21203;BME280;10759;51.982;9.232;2023-01-10T10:10:06;100576.44;;;6.80;100.00
21203;BME280;10759;51.982;9.232;2023-01-10T10:12:42;100579.25;;;6.72;100.00
21203;BME280;10759;51.982;9.232;2023-01-10T10:15:20;100525.59;;;6.45;100.00
21203;BME280;10759;51.982;9.232;2023-01-10T10:18:00;100526.41;;;6.51;100.00
21203;BME280;10759;51.982;9.232;2023-01-10T10:20:46;100584.38;;;6.81;100.00
21203;BME280;10759;51.982;9.232;2023-01-10T10:23:30;100577.78;;;7.02;100.00
21203;BME280;10759;51.982;9.232;2023-01-10T10:26:06;100490.81;;;6.55;100.00
21203;BME280;10759;51.982;9.232;2023-01-10T10:28:52;100544.22;;;6.92;100.00
21203;BME280;10759;51.982;9.232;2023-01-10T10:31:35;100565.16;;;7.10;100.00
21203;BME280;10759;51.982;9.232;2023-01-10T10:34:12;100577.25;;;7.27;100.00
21203;BME280;10759;51.982;9.232;2023-01-10T10:36:46;100575.31;;;7.35;100.00
21203;BME280;10759;51.982;9.232;2023-01-10T10:39:18;100567.38;;;7.32;100.00
21203;BME280;10759;51.982;9.232;2023-01-10T10:41:51;100535.91;;;7.09;100.00
21203;BME280;10759;51.982;9.232;2023-01-10T10:44:30;100470.00;;;6.74;100.00
21203;BME280;10759;51.982;9.232;2023-01-10T10:47:00;100555.94;;;7.27;100.00
21203;BME280;10759;51.982;9.232;2023-01-10T10:49:35;100562.28;;;7.60;100.00
21203;BME280;10759;51.982;9.232;2023-01-10T10:52:11;100563.97;;;7.66;100.00
21203;BME280;10759;51.982;9.232;2023-01-10T10:54:41;100373.78;;;6.49;100.00
21203;BME280;10759;51.982;9.232;2023-01-10T10:57:14;100568.28;;;7.71;100.00
21203;BME280;10759;51.982;9.232;2023-01-10T10:59:43;100570.47;;;7.52;100.00
21203;BME280;10759;51.982;9.232;2023-01-10T11:02:21;100576.69;;;7.53;100.00
21203;BME280;10759;51.982;9.232;2023-01-10T11:04:51;100506.69;;;7.03;100.00
21203;BME280;10759;51.982;9.232;2023-01-10T11:07:20;100582.41;;;7.36;100.00
21203;BME280;10759;51.982;9.232;2023-01-10T11:09:49;100579.56;;;7.44;100.00
21203;BME280;10759;51.982;9.232;2023-01-10T11:12:28;100567.31;;;7.35;100.00
21203;BME280;10759;51.982;9.232;2023-01-10T11:14:59;100587.47;;;7.48;100.00
21203;BME280;10759;51.982;9.232;2023-01-10T11:17:30;100569.19;;;7.30;100.00
21203;BME280;10759;51.982;9.232;2023-01-10T11:20:01;100544.78;;;7.08;100.00
21203;BME280;10759;51.982;9.232;2023-01-10T11:22:35;100585.97;;;7.35;100.00
21203;BME280;10759;51.982;9.232;2023-01-10T11:25:13;100588.72;;;7.32;100.00
21203;BME280;10759;51.982;9.232;2023-01-10T11:27:46;100590.28;;;7.41;100.00
21203;BME280;10759;51.982;9.232;2023-01-10T11:30:18;100576.81;;;7.48;100.00
21203;BME280;10759;51.982;9.232;2023-01-10T11:32:51;100559.56;;;7.23;100.00
21203;BME280;10759;51.982;9.232;2023-01-10T11:35:22;100582.44;;;7.35;100.00
21203;BME280;10759;51.982;9.232;2023-01-10T11:38:00;100576.84;;;7.45;100.00
21203;BME280;10759;51.982;9.232;2023-01-10T11:40:29;100573.38;;;7.43;100.00
21203;BME280;10759;51.982;9.232;2023-01-10T11:43:00;100567.03;;;7.47;100.00
21203;BME280;10759;51.982;9.232;2023-01-10T11:45:52;100574.84;;;7.57;100.00
21203;BME280;10759;51.982;9.232;2023-01-10T11:48:23;100575.72;;;7.57;100.00
21203;BME280;10759;51.982;9.232;2023-01-10T11:51:21;100533.59;;;7.32;100.00
21203;BME280;10759;51.982;9.232;2023-01-10T11:53:56;100563.19;;;7.61;100.00
21203;BME280;10759;51.982;9.232;2023-01-10T11:56:27;100532.78;;;7.29;100.00
21203;BME280;10759;51.982;9.232;2023-01-10T11:59:05;100454.09;;;6.71;100.00
21203;BME280;10759;51.982;9.232;2023-01-10T12:01:38;100564.41;;;7.46;100.00
21203;BME280;10759;51.982;9.232;2023-01-10T12:04:13;100564.44;;;7.44;100.00
21203;BME280;10759;51.982;9.232;2023-01-10T12:06:42;100553.47;;;7.18;100.00
21203;BME280;10759;51.982;9.232;2023-01-10T12:09:32;100572.72;;;7.30;100.00
21203;BME280;10759;51.982;9.232;2023-01-10T12:12:02;100567.47;;;7.27;100.00
21203;BME280;10759;51.982;9.232;2023-01-10T12:14:32;100576.41;;;7.25;100.00
21203;BME280;10759;51.982;9.232;2023-01-10T12:17:02;100582.44;;;7.33;100.00
21203;BME280;10759;51.982;9.232;2023-01-10T12:19:30;100571.88;;;7.28;100.00
21203;BME280;10759;51.982;9.232;2023-01-10T12:22:03;100565.69;;;7.28;100.00
21203;BME280;10759;51.982;9.232;2023-01-10T12:24:36;100569.00;;;7.39;100.00
21203;BME280;10759;51.982;9.232;2023-01-10T12:27:10;100570.47;;;7.52;100.00
21203;BME280;10759;51.982;9.232;2023-01-10T12:29:44;100566.00;;;7.55;100.00
21203;BME280;10759;51.982;9.232;2023-01-10T12:32:16;100551.41;;;7.71;100.00
21203;BME280;10759;51.982;9.232;2023-01-10T12:34:50;100555.13;;;7.64;100.00
21203;BME280;10759;51.982;9.232;2023-01-10T12:37:30;100464.75;;;7.11;100.00
21203;BME280;10759;51.982;9.232;2023-01-10T12:40:04;100553.41;;;7.61;100.00
21203;BME280;10759;51.982;9.232;2023-01-10T12:42:48;100556.94;;;7.62;100.00
21203;BME280;10759;51.982;9.232;2023-01-10T12:45:41;100557.97;;;7.56;100.00
21203;BME280;10759;51.982;9.232;2023-01-10T12:48:16;100554.44;;;7.56;100.00
21203;BME280;10759;51.982;9.232;2023-01-10T12:50:53;100546.34;;;7.59;100.00
21203;BME280;10759;51.982;9.232;2023-01-10T12:53:30;100548.25;;;7.53;100.00
21203;BME280;10759;51.982;9.232;2023-01-10T12:56:02;100556.84;;;7.65;100.00
21203;BME280;10759;51.982;9.232;2023-01-10T12:58:38;100545.84;;;7.41;100.00
21203;BME280;10759;51.982;9.232;2023-01-10T13:01:13;100509.94;;;7.19;100.00
21203;BME280;10759;51.982;9.232;2023-01-10T13:03:43;100560.91;;;7.44;100.00
21203;BME280;10759;51.982;9.232;2023-01-10T13:06:15;100562.03;;;7.34;100.00
21203;BME280;10759;51.982;9.232;2023-01-10T13:08:47;100497.16;;;6.91;100.00
21203;BME280;10759;51.982;9.232;2023-01-10T13:11:17;100512.19;;;6.95;100.00
21203;BME280;10759;51.982;9.232;2023-01-10T13:13:53;100571.94;;;7.27;100.00
21203;BME280;10759;51.982;9.232;2023-01-10T13:16:31;100567.38;;;7.32;100.00
21203;BME280;10759;51.982;9.232;2023-01-10T13:19:22;100564.63;;;7.37;100.00
21203;BME280;10759;51.982;9.232;2023-01-10T13:22:17;100561.09;;;7.36;100.00
21203;BME280;10759;51.982;9.232;2023-01-10T13:24:56;100562.16;;;7.26;100.00